• Join FlightAware (Why Join?)
  • Login
  • US Flag 
04:52PM EDT


 

Airport Tracker/Info


-or-


 

Live Flight TrackerFlight Track Log ✈ N321FU ✈ 21-Mar-2014 ✈ 7FL6 - KPGD

Flight Track Log - Related Links

Times and Time Zones

All times are in EDT time to prevent confusion due to time zone crossing. See the N321FU flight status page for this flight to view local times or setup timezone preferences in your user account.

Time Position Orientation Groundspeed Altitude Reporting Facility
EDT Latitude Longitude Course Direction KTS MPH feet Rate Location/Type
06:27PM 29.0356 -81.1517 251° West 184 212 1,200  Level Jacksonville Center
06:28PM 29.0256 -81.1853 251° West 153 176 1,900 840 Climbing Jacksonville Center
06:30PM 29.0333 -81.2500 278° West 126 145 3,400 720 Climbing Orlando TRACON
06:31PM 29.0167 -81.3000 249° West 143 165 3,900 240 Climbing Orlando TRACON
06:32PM 28.9833 -81.3333 221° Southwest 167 192 3,900  Level Orlando TRACON
06:33PM 28.9500 -81.3667 221° Southwest 177 204 3,900 540 Level Orlando TRACON
06:34PM 28.9167 -81.3833 204° Southwest 126 145 5,000 480 Climbing Orlando TRACON
06:35PM 28.8667 -81.4167 210° Southwest 159 183 4,900  Descending Orlando TRACON
06:36PM 28.8333 -81.4333 204° Southwest 176 203 5,000  Climbing Orlando TRACON
06:37PM 28.7833 -81.4667 210° Southwest 177 204 4,900  Descending Orlando TRACON
06:38PM 28.7500 -81.5000 221° Southwest 178 205 5,000  Climbing Orlando TRACON
06:39PM 28.7000 -81.5333 210° Southwest 178 205 5,000  Level Orlando TRACON
06:40PM 28.6667 -81.5500 204° Southwest 174 200 5,000 720 Level Orlando TRACON
06:41PM 28.6333 -81.5833 221° Southwest 111 128 6,500 1,200 Climbing Orlando TRACON
06:42PM 28.6000 -81.5833 180° South 104 120 7,500 720 Climbing Orlando TRACON
06:43PM 28.5667 -81.6000 204° Southwest 125 144 8,000 240 Climbing Orlando TRACON
06:44PM 28.5333 -81.6167 204° Southwest 160 184 8,000  Level Orlando TRACON
06:45PM 28.4833 -81.6333 196° South 169 194 8,000  Level Orlando TRACON
06:46PM 28.4333 -81.6333 180° South 174 200 8,000  Level Orlando TRACON
06:47PM 28.4000 -81.6500 204° Southwest 174 200 8,000  Level Orlando TRACON
06:48PM 28.3500 -81.6667 196° South 176 203 8,000  Level Orlando TRACON
06:49PM 28.3000 -81.6833 196° South 174 200 8,000  Level Orlando TRACON
06:50PM 28.2500 -81.6833 180° South 173 199 8,000  Level Orlando TRACON
06:51PM 28.2000 -81.7000 196° South 174 200 8,000  Level Orlando TRACON
06:52PM 28.1500 -81.7167 196° South 176 203 8,000  Level Orlando TRACON
06:53PM 28.1167 -81.7333 204° Southwest 178 205 8,000  Level Orlando TRACON
06:54PM 28.0667 -81.7333 180° South 178 205 8,000  Level Orlando TRACON
06:55PM 27.9856 -81.7564 194° South 188 216 8,000  Level Miami Center
06:56PM 27.9372 -81.7661 190° South 182 209 8,100  Climbing Miami Center
06:57PM 27.8908 -81.7758 190° South 182 209 8,100  Level Miami Center
06:58PM 27.8406 -81.7856 190° South 182 209 8,100  Level Miami Center
06:59PM 27.7922 -81.7975 192° South 182 209 8,100 -60 Level Miami Center
07:00PM 27.7481 -81.8050 189° South 182 209 8,000 -300 Descending Miami Center
07:01PM 27.6997 -81.8169 192° South 182 209 7,500 -480 Descending Miami Center
07:02PM 27.6406 -81.8331 194° South 182 209 7,100 -300 Descending Miami Center
07:03PM 27.5944 -81.8450 193° South 182 209 7,000 -120 Descending Miami Center
07:04PM 27.5481 -81.8572 193° South 182 209 6,900 -240 Descending Miami Center
07:05PM 27.5017 -81.8669 191° South 182 209 6,600 -420 Descending Miami Center
07:06PM 27.4533 -81.8789 192° South 182 209 6,100 -540 Descending Miami Center
07:07PM 27.4028 -81.8906 192° South 182 209 5,600 -600 Descending Miami Center
07:08PM 27.3483 -81.9022 191° South 182 209 5,000 -600 Descending Miami Center
07:09PM 27.2978 -81.9139 192° South 187 215 4,500 -540 Descending Miami Center
07:10PM 27.2472 -81.9258 192° South 187 215 4,000 -600 Descending Miami Center
07:11PM 27.1967 -81.9375 192° South 182 209 3,300 -480 Descending Miami Center
07:12PM 27.1461 -81.9494 192° South 182 209 3,100 -360 Descending Miami Center
07:13PM 27.0956 -81.9636 194° South 182 209 2,600 -540 Descending Miami Center
07:14PM 27.0408 -81.9775 193° South 182 209 2,100 180 Descending Miami Center
07:15PM 26.9883 -81.9867 189° South 182 209 3,000 420 Climbing Miami Center
07:16PM 26.9397 -82.0008 195° South 182 209 3,000  Level Miami Center
07:17PM 26.9019 -82.0133 196° South 182 209 3,000  Level Miami Center
07:19PM 26.9189 -81.9909 61° Northeast  Level Estimated
07:26PM 26.9167 -81.9833 193° South  Level FlightAware Approximate
07:27PM 26.9189 -81.9909 222° Southwest  Level Estimated
07:28PM 26.9167 -81.9833 193° South  Level FlightAware Approximate
07:29PM 26.9189 -81.9909 222° Southwest  Level Estimated
07:30PM 26.9167 -81.9833 193° South  Level FlightAware Approximate
07:31PM 26.9189 -81.9909 222° Southwest  Level Estimated
07:32PM 26.9167 -81.9833 193° South  Level FlightAware Approximate